createdAt,value
2022-09-12T00:01:05.970Z,100.00
2022-09-12T00:06:08.224Z,100.00
2022-09-12T00:11:07.401Z,100.00
2022-09-12T00:16:04.965Z,100.00
2022-09-12T00:21:04.683Z,100.00
2022-09-12T00:26:05.757Z,100.00
2022-09-12T00:31:06.329Z,100.00
2022-09-12T00:36:12.221Z,100.00
2022-09-12T00:41:23.729Z,100.00
2022-09-12T00:46:32.272Z,100.00
2022-09-12T00:51:31.121Z,100.00
2022-09-12T00:56:28.096Z,100.00
2022-09-12T01:01:25.076Z,100.00
2022-09-12T01:06:27.337Z,100.00
2022-09-12T01:11:23.735Z,100.00
2022-09-12T01:16:20.194Z,100.00
2022-09-12T01:21:35.422Z,100.00
2022-09-12T01:26:53.298Z,100.00
2022-09-12T01:32:24.197Z,100.00
2022-09-12T01:37:33.408Z,100.00
2022-09-12T01:43:09.212Z,100.00
2022-09-12T01:48:20.292Z,100.00
2022-09-12T01:53:23.641Z,100.00
2022-09-12T01:58:29.171Z,100.00
2022-09-12T02:03:31.406Z,100.00
2022-09-12T02:08:32.482Z,100.00
2022-09-12T02:13:41.033Z,100.00
2022-09-12T02:18:45.748Z,100.00
2022-09-12T02:23:48.838Z,100.00
2022-09-12T02:28:45.484Z,100.00
2022-09-12T02:34:09.150Z,100.00
2022-09-12T02:39:05.695Z,100.00
2022-09-12T02:44:03.963Z,100.00
2022-09-12T02:49:00.367Z,100.00
2022-09-12T02:53:57.467Z,100.00
2022-09-12T02:58:56.264Z,100.00
2022-09-12T03:03:52.571Z,100.00
2022-09-12T03:08:58.221Z,100.00
2022-09-12T03:14:09.194Z,100.00
2022-09-12T03:19:27.155Z,100.00
2022-09-12T03:24:38.019Z,100.00
2022-09-12T03:29:36.341Z,100.00
2022-09-12T03:34:33.012Z,100.00
2022-09-12T03:39:29.422Z,100.00
2022-09-12T03:44:25.932Z,100.00
2022-09-12T03:49:22.227Z,100.00
2022-09-12T03:54:18.548Z,100.00
2022-09-12T03:59:14.959Z,100.00
2022-09-12T04:04:11.253Z,100.00
2022-09-12T04:09:07.618Z,100.00
2022-09-12T04:14:03.993Z,100.00
2022-09-12T04:19:00.344Z,100.00
2022-09-12T04:23:56.661Z,100.00
2022-09-12T04:28:54.765Z,100.00
2022-09-12T04:33:56.200Z,100.00
2022-09-12T04:38:52.833Z,100.00
2022-09-12T04:43:54.139Z,100.00
2022-09-12T04:48:55.931Z,100.00
2022-09-12T04:53:55.467Z,100.00
2022-09-12T04:58:52.268Z,100.00
2022-09-12T05:03:49.980Z,100.00
2022-09-12T05:08:46.989Z,100.00
2022-09-12T05:13:43.720Z,100.00
2022-09-12T05:18:40.031Z,100.00
2022-09-12T05:23:36.678Z,100.00
2022-09-12T05:28:37.756Z,100.00
2022-09-12T05:33:36.076Z,100.00
2022-09-12T05:38:37.355Z,100.00
2022-09-12T05:43:34.395Z,100.00
2022-09-12T05:48:30.823Z,100.00
2022-09-12T05:53:28.370Z,100.00
2022-09-12T05:58:24.708Z,100.00
2022-09-12T06:03:21.021Z,100.00
2022-09-12T06:08:17.321Z,100.00
2022-09-12T06:13:13.936Z,100.00
2022-09-12T06:18:10.236Z,100.00
2022-09-12T06:23:06.680Z,100.00
2022-09-12T06:28:03.075Z,100.00
2022-09-12T06:32:59.360Z,100.00
2022-09-12T06:37:55.679Z,100.00
2022-09-12T06:42:51.979Z,100.00
2022-09-12T06:47:48.319Z,100.00
2022-09-12T06:52:44.609Z,100.00
2022-09-12T06:57:41.278Z,100.00
2022-09-12T07:02:37.806Z,100.00
2022-09-12T07:07:35.827Z,100.00
2022-09-12T07:12:32.249Z,100.00
2022-09-12T07:17:28.896Z,100.00
2022-09-12T07:22:25.286Z,100.00
2022-09-12T07:27:22.129Z,100.00
2022-09-12T07:32:18.490Z,100.00
2022-09-12T07:37:14.935Z,100.00
2022-09-12T07:42:12.490Z,100.00
2022-09-12T07:47:09.053Z,100.00
2022-09-12T07:52:05.763Z,100.00
2022-09-12T07:57:02.159Z,100.00
2022-09-12T08:01:58.496Z,100.00
2022-09-12T08:06:54.913Z,100.00
2022-09-12T08:11:51.226Z,100.00
2022-09-12T08:16:48.118Z,100.00
2022-09-12T08:21:44.443Z,100.00
2022-09-12T08:26:40.758Z,100.00
2022-09-12T08:31:37.221Z,100.00
2022-09-12T08:36:34.282Z,100.00
2022-09-12T08:41:36.116Z,100.00
2022-09-12T08:47:06.843Z,100.00
2022-09-12T08:52:10.359Z,100.00
2022-09-12T08:57:11.675Z,100.00
2022-09-12T09:02:43.195Z,100.00
2022-09-12T09:07:52.646Z,100.00
2022-09-12T09:13:43.971Z,100.00
2022-09-12T09:18:44.403Z,100.00
2022-09-12T09:23:49.064Z,100.00
2022-09-12T09:28:51.774Z,100.00
2022-09-12T09:33:51.214Z,100.00
2022-09-12T09:39:04.126Z,100.00
2022-09-12T09:44:01.000Z,100.00
2022-09-12T09:48:59.337Z,100.00
2022-09-12T09:54:03.542Z,100.00
2022-09-12T09:59:11.079Z,100.00
2022-09-12T10:04:18.487Z,100.00
2022-09-12T10:09:14.813Z,100.00
2022-09-12T10:14:29.211Z,100.00
2022-09-12T10:19:40.234Z,100.00
2022-09-12T10:24:42.174Z,100.00
2022-09-12T10:29:53.595Z,100.00
2022-09-12T10:35:01.845Z,100.00
2022-09-12T10:40:00.236Z,100.00
2022-09-12T10:44:56.629Z,100.00
2022-09-12T10:49:53.058Z,100.00
2022-09-12T10:54:52.576Z,100.00
2022-09-12T11:00:15.810Z,100.00
2022-09-12T11:05:38.351Z,100.00
2022-09-12T11:10:54.403Z,100.00
2022-09-12T11:16:05.736Z,100.00
2022-09-12T11:21:17.448Z,100.00
2022-09-12T11:26:24.150Z,100.00
2022-09-12T11:31:53.838Z,100.00
2022-09-12T11:37:22.094Z,100.00
2022-09-12T11:42:34.151Z,100.00
2022-09-12T11:47:34.974Z,100.00
2022-09-12T11:52:37.682Z,100.00
2022-09-12T11:58:00.117Z,100.00
2022-09-12T12:03:21.295Z,97.60
2022-09-12T12:08:18.540Z,100.00
2022-09-12T12:13:21.014Z,100.00
2022-09-12T12:18:23.612Z,100.00
2022-09-12T12:23:29.935Z,100.00
2022-09-12T12:28:41.762Z,91.15
2022-09-12T12:33:38.229Z,84.24
2022-09-12T12:38:36.442Z,90.89
2022-09-12T12:43:32.882Z,97.11
2022-09-12T12:48:33.127Z,79.80
2022-09-12T12:53:29.590Z,78.22
2022-09-12T12:58:37.150Z,66.46
2022-09-12T13:03:34.633Z,75.09
2022-09-12T13:08:39.294Z,85.23
2022-09-12T13:13:46.088Z,84.96
2022-09-12T13:18:48.985Z,79.89
2022-09-12T13:24:02.068Z,82.24
2022-09-12T13:29:18.050Z,83.70
2022-09-12T13:34:46.030Z,72.73
2022-09-12T13:39:54.194Z,71.95
2022-09-12T13:44:54.940Z,73.99
2022-09-12T13:49:51.624Z,81.05
2022-09-12T13:54:51.230Z,77.33
2022-09-12T13:59:48.770Z,63.23
2022-09-12T14:05:06.812Z,68.49
2022-09-12T14:10:04.902Z,69.05
2022-09-12T14:15:01.622Z,71.77
2022-09-12T14:20:04.987Z,72.34
2022-09-12T14:25:01.961Z,66.68
2022-09-12T14:30:20.277Z,65.55
2022-09-12T14:35:20.476Z,64.18
2022-09-12T14:40:20.318Z,63.91
2022-09-12T14:45:30.550Z,64.38
2022-09-12T14:50:31.552Z,67.41
2022-09-12T14:55:34.165Z,62.55
2022-09-12T15:00:30.983Z,65.47
2022-09-12T15:05:28.036Z,60.26
2022-09-12T15:10:26.238Z,60.17
2022-09-12T15:15:22.550Z,57.36
2022-09-12T15:20:18.920Z,57.42
2022-09-12T15:25:15.656Z,62.12
2022-09-12T15:30:13.322Z,62.25
2022-09-12T15:35:24.628Z,65.95
2022-09-12T15:40:21.223Z,65.37
2022-09-12T15:45:25.795Z,67.58
2022-09-12T15:50:22.813Z,69.93
2022-09-12T15:55:29.423Z,69.71
2022-09-12T16:00:26.674Z,70.15
2022-09-12T16:05:25.520Z,66.01
2022-09-12T16:10:26.069Z,66.79
2022-09-12T16:15:24.935Z,67.48
2022-09-12T16:20:22.281Z,72.89
2022-09-12T16:25:18.695Z,72.71
2022-09-12T16:30:15.173Z,74.63
2022-09-12T16:35:11.654Z,78.82
2022-09-12T16:40:09.260Z,70.15
2022-09-12T16:45:06.612Z,69.87
2022-09-12T16:50:03.881Z,77.14
2022-09-12T16:55:00.207Z,89.02
2022-09-12T16:59:56.543Z,77.35
2022-09-12T17:04:52.991Z,81.11
2022-09-12T17:09:49.484Z,64.39
2022-09-12T17:14:45.937Z,60.48
2022-09-12T17:19:43.360Z,59.82
2022-09-12T17:24:40.449Z,71.82
2022-09-12T17:29:38.527Z,94.29
2022-09-12T17:34:34.839Z,100.00
2022-09-12T17:39:31.294Z,100.00
2022-09-12T17:44:29.168Z,100.00
2022-09-12T17:49:25.672Z,100.00
2022-09-12T17:54:22.322Z,100.00
2022-09-12T17:59:20.151Z,100.00
2022-09-12T18:04:17.603Z,100.00
2022-09-12T18:09:16.390Z,100.00
2022-09-12T18:14:14.421Z,100.00
2022-09-12T18:19:11.338Z,100.00
2022-09-12T18:24:09.781Z,100.00
2022-09-12T18:29:06.834Z,100.00
2022-09-12T18:34:03.517Z,100.00
2022-09-12T18:39:00.047Z,100.00
2022-09-12T18:43:57.746Z,100.00
2022-09-12T18:48:57.951Z,100.00
2022-09-12T18:54:00.282Z,100.00
2022-09-12T18:58:57.476Z,100.00
2022-09-12T19:03:55.029Z,100.00
2022-09-12T19:08:52.608Z,100.00
2022-09-12T19:13:51.416Z,100.00
2022-09-12T19:18:49.611Z,100.00
2022-09-12T19:23:46.355Z,100.00
2022-09-12T19:28:43.434Z,100.00
2022-09-12T19:33:40.816Z,100.00
2022-09-12T19:38:37.176Z,100.00
2022-09-12T19:43:34.259Z,100.00
2022-09-12T19:48:30.797Z,100.00
2022-09-12T19:53:28.236Z,100.00
2022-09-12T19:58:24.546Z,100.00
2022-09-12T20:03:20.915Z,100.00
2022-09-12T20:08:17.323Z,100.00
2022-09-12T20:13:13.834Z,100.00
2022-09-12T20:18:10.220Z,100.00
2022-09-12T20:23:06.558Z,100.00
2022-09-12T20:28:03.139Z,100.00
2022-09-12T20:32:59.484Z,100.00
2022-09-12T20:37:55.806Z,100.00
2022-09-12T20:42:52.838Z,100.00
2022-09-12T20:47:49.189Z,100.00
2022-09-12T20:52:45.490Z,100.00
2022-09-12T20:57:41.807Z,100.00
2022-09-12T21:02:38.284Z,100.00
2022-09-12T21:07:34.758Z,100.00
2022-09-12T21:12:31.153Z,100.00
2022-09-12T21:17:27.524Z,100.00
2022-09-12T21:22:24.118Z,100.00
2022-09-12T21:27:20.427Z,100.00
2022-09-12T21:32:16.740Z,100.00
2022-09-12T21:37:13.682Z,100.00
2022-09-12T21:42:10.081Z,100.00
2022-09-12T21:47:06.515Z,100.00
2022-09-12T21:52:03.422Z,100.00
2022-09-12T21:56:59.758Z,100.00
2022-09-12T22:01:56.214Z,100.00
2022-09-12T22:06:52.725Z,100.00
2022-09-12T22:11:49.045Z,100.00
2022-09-12T22:16:45.381Z,100.00
2022-09-12T22:22:01.730Z,100.00
2022-09-12T22:26:59.116Z,100.00
2022-09-12T22:31:55.536Z,100.00
2022-09-12T22:36:52.026Z,100.00
2022-09-12T22:41:48.443Z,100.00
2022-09-12T22:46:44.969Z,100.00
2022-09-12T22:51:41.543Z,100.00
2022-09-12T22:56:38.056Z,100.00
2022-09-12T23:01:35.316Z,100.00
2022-09-12T23:06:31.777Z,100.00
2022-09-12T23:11:28.189Z,100.00
2022-09-12T23:16:25.972Z,100.00
2022-09-12T23:21:22.561Z,100.00
2022-09-12T23:26:24.369Z,100.00
2022-09-12T23:31:26.676Z,100.00
2022-09-12T23:36:23.670Z,100.00
2022-09-12T23:41:20.821Z,100.00
2022-09-12T23:46:18.241Z,100.00
2022-09-12T23:51:14.751Z,100.00
2022-09-12T23:56:11.202Z,100.00
